Time;durP1;ratioP1;P1;durP2;ratioP2;P2;SDS_P1;SDS_P2;PMS_P1;PMS_P2;Temp;Humidity;BMP_temperature;BMP_pressure;BME280_temperature;BME280_humidity;BME280_pressure;Samples;Min_cycle;Max_cycle;Signal;HPM_P1;HPM_P2
2023/01/02 00:00:13;;;;;;;36.80;20.95;;;21.00;64.70;;;;;;5113129;28;20031;-70
2023/01/02 00:02:39;;;;;;;32.35;21.00;;;20.90;64.60;;;;;;5112187;28;20034;-71
2023/01/02 00:05:05;;;;;;;36.13;21.13;;;21.00;64.50;;;;;;5113152;28;20124;-70
2023/01/02 00:07:31;;;;;;;37.35;22.05;;;20.80;64.40;;;;;;5113305;27;20040;-70
2023/01/02 00:09:57;;;;;;;33.72;20.20;;;21.00;64.60;;;;;;5100853;28;20039;-70
2023/01/02 00:12:23;;;;;;;35.10;21.42;;;20.40;64.40;;;;;;5075082;28;20114;-70
2023/01/02 00:14:49;;;;;;;34.08;22.10;;;20.90;64.70;;;;;;5093512;28;20032;-69
2023/01/02 00:17:17;;;;;;;34.05;20.98;;;20.80;64.70;;;;;;5092740;28;20074;-71
2023/01/02 00:19:44;;;;;;;31.83;21.90;;;20.80;64.80;;;;;;5058111;28;20064;-70
2023/01/02 00:22:09;;;;;;;32.92;21.42;;;20.80;64.70;;;;;;5092550;28;20036;-70
2023/01/02 00:24:36;;;;;;;33.15;21.75;;;20.90;64.50;;;;;;5092515;28;20035;-70
2023/01/02 00:27:02;;;;;;;34.13;21.65;;;20.80;64.20;;;;;;5092836;28;20036;-70
2023/01/02 00:29:28;;;;;;;32.53;20.75;;;20.90;64.40;;;;;;5057918;28;20052;-70
2023/01/02 00:31:54;;;;;;;34.45;21.77;;;20.90;64.30;;;;;;5071885;28;20082;-70
2023/01/02 00:34:20;;;;;;;37.30;23.63;;;20.70;64.20;;;;;;5072077;28;20024;-71
2023/01/02 00:36:46;;;;;;;37.47;21.67;;;20.70;64.30;;;;;;5069863;28;20436;-69
2023/01/02 00:39:12;;;;;;;31.10;20.95;;;20.80;64.30;;;;;;5070435;28;20029;-69
2023/01/02 00:41:38;;;;;;;36.20;22.77;;;20.70;64.30;;;;;;5072557;28;20399;-69
2023/01/02 00:44:04;;;;;;;35.50;22.17;;;20.70;64.40;;;;;;5072023;28;20033;-70
2023/01/02 00:46:30;;;;;;;35.22;21.90;;;20.60;64.30;;;;;;5071860;28;20120;-69
2023/01/02 00:48:56;;;;;;;35.83;21.35;;;20.60;64.30;;;;;;5072069;28;20103;-69
2023/01/02 00:51:22;;;;;;;38.58;21.83;;;20.80;64.40;;;;;;5072056;28;20043;-69
2023/01/02 00:53:48;;;;;;;38.10;22.95;;;20.60;64.20;;;;;;5071507;28;20373;-70
2023/01/02 00:56:14;;;;;;;32.38;20.92;;;20.80;64.10;;;;;;5072158;28;20052;-69
2023/01/02 00:58:40;;;;;;;38.13;21.70;;;20.70;64.10;;;;;;5071406;28;20071;-70
2023/01/02 01:01:06;;;;;;;35.05;21.88;;;20.80;63.90;;;;;;5072049;28;20028;-70
2023/01/02 01:03:32;;;;;;;37.25;22.00;;;20.80;63.90;;;;;;5036395;28;20052;-70
2023/01/02 01:05:58;;;;;;;33.88;22.58;;;20.80;63.80;;;;;;5072040;28;20033;-69
2023/01/02 01:08:24;;;;;;;37.95;22.13;;;20.70;63.90;;;;;;5036069;28;20048;-70
2023/01/02 01:10:50;;;;;;;32.72;20.95;;;20.60;63.80;;;;;;5071568;28;20496;-70
2023/01/02 01:13:16;;;;;;;34.28;21.77;;;20.70;63.90;;;;;;5071553;28;20462;-70
2023/01/02 01:15:43;;;;;;;35.88;21.92;;;20.60;63.90;;;;;;5070975;28;20029;-71
2023/01/02 01:18:09;;;;;;;34.63;21.42;;;20.60;63.90;;;;;;5070192;28;20021;-70
2023/01/02 01:20:38;;;;;;;34.95;22.33;;;20.60;64.00;;;;;;5070535;28;20040;-71
2023/01/02 01:23:04;;;;;;;37.08;20.88;;;20.60;64.00;;;;;;5071102;28;20036;-71
2023/01/02 01:25:30;;;;;;;30.50;19.48;;;20.60;64.00;;;;;;5071038;28;20035;-71
2023/01/02 01:27:56;;;;;;;34.60;21.83;;;20.60;63.90;;;;;;5070453;28;20029;-70
2023/01/02 01:30:22;;;;;;;30.30;19.70;;;20.60;63.90;;;;;;5070431;28;20028;-69
2023/01/02 01:32:48;;;;;;;30.27;20.52;;;20.50;63.70;;;;;;5070904;28;20059;-69
2023/01/02 01:35:14;;;;;;;28.85;18.45;;;20.60;63.70;;;;;;5069429;28;20076;-69
2023/01/02 01:37:40;;;;;;;33.05;19.33;;;20.50;63.60;;;;;;5071098;28;20025;-69
2023/01/02 01:40:06;;;;;;;32.15;19.85;;;20.60;63.60;;;;;;5070330;28;20444;-69
2023/01/02 01:42:33;;;;;;;30.80;19.52;;;20.50;63.80;;;;;;5073261;28;20036;-69
2023/01/02 01:44:59;;;;;;;32.55;20.38;;;20.40;63.70;;;;;;5070454;28;20036;-69
2023/01/02 01:47:41;;;;;;;29.17;18.33;;;20.50;63.80;;;;;;5070381;28;20029;-69
2023/01/02 01:50:17;;;;;;;28.80;18.52;;;20.50;63.90;;;;;;5070238;28;20097;-69
2023/01/02 01:53:08;;;;;;;35.25;21.83;;;20.50;63.80;;;;;;5070149;28;20116;-69
2023/01/02 01:55:40;;;;;;;32.80;20.75;;;20.50;63.80;;;;;;5070287;28;20047;-69
2023/01/02 01:58:10;;;;;;;34.00;20.08;;;20.50;63.70;;;;;;5070174;28;20029;-69
2023/01/02 02:00:36;;;;;;;36.67;20.95;;;20.60;63.60;;;;;;5070520;28;20118;-68
2023/01/02 02:03:11;;;;;;;31.48;21.25;;;20.50;63.40;;;;;;5070149;28;20104;-69
2023/01/02 02:05:38;;;;;;;35.00;21.70;;;20.40;63.20;;;;;;5070398;28;20075;-69
2023/01/02 02:08:20;;;;;;;30.33;19.92;;;20.50;63.20;;;;;;5070304;28;20037;-69
2023/01/02 02:10:48;;;;;;;34.05;20.95;;;20.60;63.10;;;;;;5037801;28;20040;-70
2023/01/02 02:13:14;;;;;;;33.70;20.40;;;20.50;63.10;;;;;;5090352;28;20481;-69
2023/01/02 02:16:00;;;;;;;30.13;20.25;;;20.50;63.20;;;;;;5090461;28;20035;-69
2023/01/02 02:19:03;;;;;;;33.97;20.48;;;20.50;63.40;;;;;;5089956;28;20063;-68
2023/01/02 02:21:50;;;;;;;30.40;19.37;;;20.40;63.30;;;;;;5088728;28;20032;-68
2023/01/02 02:24:41;;;;;;;34.90;21.50;;;20.30;63.40;;;;;;5090208;28;20392;-68
2023/01/02 02:27:33;;;;;;;31.38;19.67;;;20.30;63.50;;;;;;5072527;28;20049;-69
2023/01/02 02:30:06;;;;;;;35.15;20.85;;;20.40;63.40;;;;;;5090813;28;20039;-69
2023/01/02 02:33:03;;;;;;;31.35;19.45;;;20.30;63.40;;;;;;5091041;28;20040;-69
2023/01/02 02:35:52;;;;;;;28.83;19.75;;;20.40;63.20;;;;;;5090843;28;20063;-69
2023/01/02 02:38:44;;;;;;;36.13;22.02;;;20.40;63.00;;;;;;5090587;28;20031;-69
2023/01/02 02:41:25;;;;;;;36.28;22.10;;;20.40;62.90;;;;;;5072925;28;20046;-69
2023/01/02 02:44:25;;;;;;;36.50;22.38;;;20.30;63.10;;;;;;5090984;28;20051;-69
2023/01/02 02:47:02;;;;;;;30.58;20.23;;;20.40;63.00;;;;;;5092456;28;20134;-69
2023/01/02 02:49:40;;;;;;;29.23;19.20;;;20.40;63.10;;;;;;5094551;28;20032;-69
2023/01/02 02:52:20;;;;;;;31.08;19.45;;;20.30;63.20;;;;;;5094809;28;20059;-70
2023/01/02 02:55:21;;;;;;;31.27;19.10;;;20.20;63.10;;;;;;5095072;28;20533;-70
2023/01/02 02:57:50;;;;;;;26.30;17.88;;;20.30;63.20;;;;;;5095119;28;20032;-69
2023/01/02 03:00:19;;;;;;;25.88;17.92;;;20.20;63.10;;;;;;5094999;28;20062;-70
2023/01/02 03:02:45;;;;;;;31.92;20.35;;;20.20;63.00;;;;;;5092791;28;20040;-70
2023/01/02 03:05:18;;;;;;;28.05;19.45;;;20.40;63.10;;;;;;5092687;28;20504;-69
2023/01/02 03:07:47;;;;;;;;;;;20.40;62.90;;;;;;5094382;28;20036;-70
2023/01/02 03:10:50;;;;;;;36.58;21.50;;;20.40;62.80;;;;;;5079023;28;20927;-69
2023/01/02 03:13:35;;;;;;;31.83;19.60;;;20.40;62.90;;;;;;5074794;28;20033;-69
2023/01/02 03:16:29;;;;;;;32.05;21.13;;;20.40;62.80;;;;;;5074469;28;20029;-71
2023/01/02 03:19:13;;;;;;;29.88;19.52;;;20.40;62.70;;;;;;5074776;28;20381;-70
2023/01/02 03:22:11;;;;;;;32.13;19.88;;;20.30;62.70;;;;;;5074333;28;20133;-70
2023/01/02 03:24:41;;;;;;;32.03;20.25;;;20.40;62.70;;;;;;4973170;28;20060;-70
2023/01/02 03:27:15;;;;;;;32.38;20.83;;;20.30;62.70;;;;;;4973318;28;20457;-71
2023/01/02 03:29:43;;;;;;;36.90;22.80;;;20.20;62.80;;;;;;4973446;28;20039;-71
2023/01/02 03:32:15;;;;;;;30.45;22.25;;;20.30;63.10;;;;;;4957274;28;20097;-70
2023/01/02 03:34:46;;;;;;;33.33;20.50;;;20.20;62.80;;;;;;4973421;28;20039;-70
2023/01/02 03:37:22;;;;;;;36.25;21.63;;;20.20;62.80;;;;;;4973194;28;20042;-71
2023/01/02 03:39:53;;;;;;;;;;;20.10;62.80;;;;;;4973758;28;20043;-71
2023/01/02 03:42:30;;;;;;;34.08;20.45;;;20.20;62.70;;;;;;4956889;28;19968;-69
2023/01/02 03:45:00;;;;;;;30.48;20.35;;;20.30;62.70;;;;;;4972789;28;20400;-69
2023/01/02 03:47:36;;;;;;;29.55;19.73;;;20.10;62.40;;;;;;4973182;28;20035;-70
2023/01/02 03:50:09;;;;;;;32.40;19.38;;;20.20;62.40;;;;;;4973168;28;20528;-71
2023/01/02 03:52:36;;;;;;;30.80;19.67;;;20.10;62.40;;;;;;4972856;28;20041;-70
2023/01/02 03:55:03;;;;;;;29.02;19.63;;;20.20;62.40;;;;;;4972600;28;20034;-69
2023/01/02 03:57:44;;;;;;;29.95;19.50;;;20.10;62.40;;;;;;4972121;28;20622;-69
2023/01/02 04:00:17;;;;;;;31.23;19.67;;;20.20;62.50;;;;;;4971705;28;20038;-69
2023/01/02 04:02:46;;;;;;;39.20;21.88;;;20.10;62.60;;;;;;5014403;28;20384;-69
2023/01/02 04:05:21;;;;;;;30.00;19.10;;;20.00;62.50;;;;;;5073146;28;20048;-70
2023/01/02 04:07:59;;;;;;;32.53;19.50;;;20.10;62.70;;;;;;5072734;28;20040;-70
2023/01/02 04:10:28;;;;;;;28.20;19.70;;;20.10;62.60;;;;;;5072440;28;20078;-69
2023/01/02 04:12:58;;;;;;;31.95;19.48;;;20.10;62.50;;;;;;5072465;28;20341;-68
2023/01/02 04:15:27;;;;;;;30.75;19.42;;;20.10;62.40;;;;;;5055350;28;20021;-69
2023/01/02 04:18:00;;;;;;;30.02;18.67;;;20.00;62.20;;;;;;5034846;28;20583;-69
2023/01/02 04:20:28;;;;;;;;;;;20.30;62.30;;;;;;5053151;28;20033;-68
2023/01/02 04:23:05;;;;;;;24.85;18.38;;;20.20;62.10;;;;;;5052980;28;19908;-68
2023/01/02 04:26:13;;;;;;;30.90;20.08;;;20.20;62.10;;;;;;5053166;28;20033;-68
2023/01/02 04:28:39;;;;;;;34.50;18.30;;;20.30;62.10;;;;;;4933123;29;20054;-68
2023/01/02 04:31:14;;;;;;;31.50;19.45;;;20.20;61.90;;;;;;4933204;29;20509;-68
2023/01/02 04:33:46;;;;;;;30.52;19.05;;;20.20;62.00;;;;;;4933233;29;20067;-68
2023/01/02 04:36:14;;;;;;;28.57;19.00;;;20.10;62.30;;;;;;4932801;29;20043;-68
2023/01/02 04:38:44;;;;;;;30.33;19.48;;;20.20;62.10;;;;;;4933189;29;20219;-68
2023/01/02 04:41:14;;;;;;;31.90;18.05;;;20.10;62.30;;;;;;4933036;29;20035;-69
2023/01/02 04:43:40;;;;;;;27.20;18.70;;;20.10;62.30;;;;;;4933088;29;20051;-69
2023/01/02 04:46:06;;;;;;;27.92;18.10;;;20.10;62.30;;;;;;4933204;29;20059;-69
2023/01/02 04:48:32;;;;;;;30.77;18.73;;;20.10;62.30;;;;;;4933024;29;20095;-68
2023/01/02 04:50:59;;;;;;;25.90;17.20;;;20.00;62.20;;;;;;4932480;29;20060;-68
2023/01/02 04:53:25;;;;;;;27.60;16.05;;;20.20;62.40;;;;;;4932294;29;20089;-68
2023/01/02 04:55:57;;;;;;;26.52;17.10;;;20.20;62.10;;;;;;4932351;29;20043;-68
2023/01/02 04:58:23;;;;;;;26.17;17.50;;;20.20;61.50;;;;;;4932123;29;20084;-69
2023/01/02 05:00:49;;;;;;;22.08;15.07;;;20.40;61.00;;;;;;4950502;29;20296;-67
2023/01/02 05:03:15;;;;;;;24.70;15.73;;;20.40;61.50;;;;;;4950655;28;20031;-67
2023/01/02 05:05:41;;;;;;;22.23;14.15;;;20.60;60.50;;;;;;5014955;28;20421;-67
2023/01/02 05:08:07;;;;;;;25.05;16.83;;;20.60;60.50;;;;;;5051036;28;20036;-69
2023/01/02 05:10:33;;;;;;;28.52;17.48;;;20.90;59.80;;;;;;5050532;28;20088;-69
2023/01/02 05:12:59;;;;;;;24.35;16.83;;;21.00;58.00;;;;;;5033060;28;20048;-69
2023/01/02 05:15:25;;;;;;;27.48;17.70;;;21.10;58.10;;;;;;5051038;28;20421;-68
2023/01/02 05:17:51;;;;;;;27.25;17.40;;;21.30;58.20;;;;;;5051445;28;20047;-67
2023/01/02 05:20:17;;;;;;;30.13;19.38;;;21.50;59.10;;;;;;5050792;28;20116;-69
2023/01/02 05:25:33;;;;;;;24.15;18.00;;;21.80;63.30;;;;;;5050644;28;20104;-70
2023/01/02 05:28:01;;;;;;;27.95;18.55;;;21.90;58.50;;;;;;5050651;28;20411;-69
2023/01/02 05:30:27;;;;;;;28.60;18.52;;;21.90;56.10;;;;;;5050429;28;20037;-70
2023/01/02 05:32:53;;;;;;;26.42;17.65;;;22.00;54.20;;;;;;5050583;28;20037;-72
2023/01/02 05:35:19;;;;;;;24.98;17.75;;;21.90;53.80;;;;;;5049918;28;20036;-71
2023/01/02 05:37:45;;;;;;;28.75;18.58;;;21.80;53.00;;;;;;5049488;28;20021;-71
2023/01/02 05:40:11;;;;;;;25.83;18.35;;;21.80;52.40;;;;;;5031613;28;20039;-73
2023/01/02 05:42:37;;;;;;;27.60;17.90;;;21.90;51.80;;;;;;5050111;28;20037;-67
2023/01/02 05:45:04;;;;;;;23.95;16.70;;;21.80;51.30;;;;;;5014440;28;20048;-67
2023/01/02 05:47:30;;;;;;;32.28;21.13;;;21.90;51.00;;;;;;5070608;28;20112;-70
2023/01/02 05:49:56;;;;;;;29.40;19.67;;;21.80;50.20;;;;;;5070781;28;20618;-68
2023/01/02 05:52:22;;;;;;;31.05;19.90;;;21.60;50.80;;;;;;5070165;28;20039;-69
2023/01/02 05:54:48;;;;;;;31.27;18.83;;;21.50;52.40;;;;;;5070768;28;20107;-72
2023/01/02 05:57:14;;;;;;;29.27;19.38;;;21.40;53.30;;;;;;5070528;28;20040;-74
2023/01/02 05:59:40;;;;;;;36.08;20.80;;;21.40;53.90;;;;;;5070602;28;20040;-69
2023/01/02 06:02:06;;;;;;;32.00;22.95;;;21.30;54.60;;;;;;5070566;28;20055;-70
2023/01/02 06:04:32;;;;;;;29.95;21.73;;;21.10;50.40;;;;;;5070833;28;20045;-68
2023/01/02 06:06:58;;;;;;;24.52;19.48;;;21.00;48.90;;;;;;5070680;28;20048;-72
2023/01/02 06:09:24;;;;;;;23.02;15.57;;;21.10;49.40;;;;;;5070536;28;20474;-70
2023/01/02 06:11:50;;;;;;;26.15;17.90;;;21.00;48.90;;;;;;5070401;28;20024;-70
2023/01/02 06:14:16;;;;;;;23.48;16.33;;;21.00;50.30;;;;;;5070123;28;20032;-70
2023/01/02 06:16:42;;;;;;;25.42;17.42;;;21.00;51.00;;;;;;5042395;28;20056;-69
2023/01/02 06:19:08;;;;;;;24.17;18.70;;;21.00;50.20;;;;;;5049546;28;20131;-72
2023/01/02 06:21:34;;;;;;;25.58;17.88;;;21.00;48.70;;;;;;5052350;28;20044;-70
2023/01/02 06:24:00;;;;;;;27.25;20.13;;;21.00;48.70;;;;;;5033976;28;20075;-70
2023/01/02 06:26:27;;;;;;;16.02;12.30;;;21.00;50.30;;;;;;5053491;28;20116;-72
2023/01/02 06:28:55;;;;;;;28.65;20.98;;;21.10;49.70;;;;;;5053332;28;20045;-71
2023/01/02 06:31:25;;;;;;;29.80;22.05;;;21.00;48.90;;;;;;5053211;28;20025;-71
2023/01/02 06:33:55;;;;;;;28.30;21.80;;;20.90;52.20;;;;;;5052395;28;20486;-70
2023/01/02 06:36:21;;;;;;;28.00;20.15;;;21.10;53.40;;;;;;5052533;28;20040;-68
2023/01/02 06:38:47;;;;;;;32.40;23.58;;;21.20;52.90;;;;;;5052309;28;20045;-69
2023/01/02 06:41:13;;;;;;;35.03;24.52;;;21.20;55.80;;;;;;5053349;28;20037;-70
2023/01/02 06:43:45;;;;;;;26.42;21.10;;;21.30;55.80;;;;;;5035144;28;20106;-71
2023/01/02 06:46:12;;;;;;;28.08;21.08;;;21.20;53.30;;;;;;5053128;28;20037;-70
2023/01/02 06:48:39;;;;;;;30.40;22.65;;;21.30;54.60;;;;;;5001006;28;20037;-72
2023/01/02 06:51:07;;;;;;;30.00;23.60;;;21.30;54.90;;;;;;5048252;28;20047;-71
2023/01/02 06:53:35;;;;;;;36.50;28.65;;;21.50;52.80;;;;;;5061276;28;20025;-71
2023/01/02 06:56:01;;;;;;;34.15;24.42;;;21.50;53.50;;;;;;5063025;28;20036;-73
2023/01/02 06:58:32;;;;;;;31.48;22.95;;;21.60;52.00;;;;;;5042472;28;20390;-73
2023/01/02 07:01:02;;;;;;;4.65;3.80;;;21.50;48.40;;;;;;5060730;28;20040;-70
2023/01/02 07:03:29;;;;;;;31.40;20.35;;;21.50;55.80;;;;;;5060449;28;20032;-72
2023/01/02 07:06:00;;;;;;;32.80;19.67;;;21.60;63.10;;;;;;5059823;28;20039;-72
2023/01/02 07:08:26;;;;;;;34.65;21.15;;;21.80;64.00;;;;;;5059440;28;20192;-71
2023/01/02 07:10:51;;;;;;;33.50;20.98;;;21.70;63.60;;;;;;5034113;28;20547;-69
2023/01/02 07:13:17;;;;;;;34.38;21.42;;;21.70;65.80;;;;;;5051972;28;20059;-70
2023/01/02 07:15:43;;;;;;;22.73;15.95;;;21.70;64.00;;;;;;5052214;28;20032;-72
2023/01/02 07:18:09;;;;;;;30.25;18.02;;;21.50;64.10;;;;;;5051826;28;20025;-72
2023/01/02 07:20:35;;;;;;;29.42;18.50;;;21.60;64.10;;;;;;5052135;28;20033;-71
2023/01/02 07:23:01;;;;;;;28.77;18.48;;;21.70;64.20;;;;;;5051836;28;20083;-73
2023/01/02 07:25:27;;;;;;;27.73;18.23;;;21.60;64.10;;;;;;5052587;28;20029;-73
2023/01/02 07:27:53;;;;;;;27.25;18.33;;;21.90;64.40;;;;;;5016701;28;20071;-73
2023/01/02 07:30:19;;;;;;;23.40;14.63;;;21.90;64.70;;;;;;5052604;28;20025;-72
2023/01/02 07:32:45;;;;;;;20.67;14.35;;;21.90;64.30;;;;;;5051689;28;20021;-74
2023/01/02 07:35:11;;;;;;;22.98;16.05;;;22.00;62.50;;;;;;5052375;28;20489;-74
2023/01/02 07:37:37;;;;;;;26.73;16.80;;;21.90;60.60;;;;;;5052623;28;20531;-71
2023/01/02 07:40:03;;;;;;;23.95;16.00;;;22.00;60.00;;;;;;5052129;28;20055;-74
2023/01/02 07:42:29;;;;;;;22.48;14.77;;;21.90;59.50;;;;;;5052256;28;20056;-69
2023/01/02 07:44:55;;;;;;;29.77;19.42;;;22.00;59.10;;;;;;5022603;28;20513;-77
2023/01/02 07:47:21;;;;;;;31.27;20.83;;;22.00;58.80;;;;;;5054493;28;20061;-72
2023/01/02 07:49:47;;;;;;;27.95;20.50;;;21.90;58.10;;;;;;5051831;28;20479;-73
2023/01/02 07:52:13;;;;;;;27.23;19.75;;;21.70;58.60;;;;;;5060329;28;20469;-73
2023/01/02 07:54:39;;;;;;;27.48;20.60;;;21.60;60.20;;;;;;5092233;28;20028;-70
2023/01/02 07:57:05;;;;;;;31.95;20.33;;;21.50;61.10;;;;;;5092339;28;20029;-71
2023/01/02 07:59:31;;;;;;;30.00;20.27;;;21.40;61.80;;;;;;5092389;28;20113;-74
2023/01/02 08:01:57;;;;;;;25.38;19.17;;;21.30;62.40;;;;;;5083280;28;20029;-73
2023/01/02 08:04:23;;;;;;;31.13;20.38;;;21.40;63.00;;;;;;5016807;28;20150;-70
2023/01/02 08:06:49;;;;;;;27.63;20.60;;;21.40;63.20;;;;;;5051800;28;20033;-69
2023/01/02 08:09:15;;;;;;;26.05;18.45;;;21.30;59.70;;;;;;5051965;28;20072;-70
2023/01/02 08:11:41;;;;;;;27.58;19.27;;;21.20;63.10;;;;;;5051786;28;20048;-73
2023/01/02 08:14:07;;;;;;;27.45;19.38;;;21.00;63.30;;;;;;5052109;28;20033;-74
2023/01/02 08:16:33;;;;;;;30.10;19.42;;;21.10;63.50;;;;;;5065392;28;20408;-75
2023/01/02 08:18:59;;;;;;;24.50;18.73;;;21.10;64.00;;;;;;5071389;28;20051;-76
2023/01/02 08:21:25;;;;;;;29.58;19.08;;;21.00;64.20;;;;;;5071585;28;20119;-72
2023/01/02 08:23:51;;;;;;;27.60;19.35;;;21.00;64.20;;;;;;5071490;28;20028;-71
2023/01/02 08:26:19;;;;;;;30.20;18.95;;;20.90;64.10;;;;;;5053598;28;20024;-72
2023/01/02 08:28:45;;;;;;;25.13;19.33;;;21.10;64.60;;;;;;5053777;28;20047;-75
2023/01/02 08:31:14;;;;;;;23.50;18.27;;;20.90;64.00;;;;;;5019124;28;20045;-71
2023/01/02 08:33:40;;;;;;;26.63;17.65;;;21.00;63.70;;;;;;5071165;28;20028;-73
2023/01/02 08:36:07;;;;;;;28.85;18.85;;;20.90;63.60;;;;;;5071324;28;20067;-72
2023/01/02 08:38:33;;;;;;;26.42;18.38;;;21.00;64.50;;;;;;5071133;28;20460;-70
2023/01/02 08:40:59;;;;;;;31.25;19.98;;;21.00;65.80;;;;;;5075909;28;20062;-70
2023/01/02 08:43:25;;;;;;;28.10;18.85;;;20.90;65.60;;;;;;5055034;28;20075;-70
2023/01/02 08:45:52;;;;;;;27.63;18.35;;;21.00;65.60;;;;;;5062604;28;20052;-70
2023/01/02 08:48:18;;;;;;;25.88;17.40;;;21.00;65.60;;;;;;5061030;28;20029;-70
2023/01/02 08:50:44;;;;;;;29.60;18.35;;;21.00;65.30;;;;;;5087230;28;20118;-73
2023/01/02 08:53:10;;;;;;;24.80;18.45;;;21.00;65.30;;;;;;5070926;28;20024;-72
2023/01/02 08:55:36;;;;;;;31.30;18.20;;;21.10;65.60;;;;;;5045067;28;20492;-71
2023/01/02 08:58:02;;;;;;;28.98;18.73;;;21.10;65.80;;;;;;5064478;28;20067;-70
2023/01/02 09:00:28;;;;;;;28.50;19.38;;;21.20;65.10;;;;;;5057127;28;20498;-73
2023/01/02 09:02:54;;;;;;;25.88;17.90;;;21.20;65.20;;;;;;5050721;28;20025;-71
2023/01/02 09:05:20;;;;;;;28.52;18.88;;;21.10;65.30;;;;;;5033472;28;20033;-71
2023/01/02 09:07:46;;;;;;;26.73;17.98;;;21.10;64.30;;;;;;5051106;28;20028;-72
2023/01/02 09:10:12;;;;;;;25.83;18.50;;;21.20;65.40;;;;;;5051133;28;20056;-69
2023/01/02 09:12:38;;;;;;;23.08;16.27;;;21.40;66.40;;;;;;5050759;28;20115;-69
2023/01/02 09:15:04;;;;;;;29.67;19.10;;;21.40;66.00;;;;;;5050933;28;20496;-69
2023/01/02 09:17:30;;;;;;;24.77;17.92;;;21.40;65.80;;;;;;5031749;28;20045;-69
2023/01/02 09:19:56;;;;;;;24.33;17.33;;;21.40;65.80;;;;;;5050567;28;20540;-69
2023/01/02 09:22:22;;;;;;;27.33;16.42;;;21.50;65.80;;;;;;5050453;28;20532;-69
2023/01/02 09:24:48;;;;;;;23.13;16.85;;;21.60;65.20;;;;;;5050731;28;20033;-70
2023/01/02 09:27:14;;;;;;;25.88;16.25;;;21.60;64.80;;;;;;5050737;28;20031;-70
2023/01/02 09:29:40;;;;;;;24.83;16.38;;;21.60;64.60;;;;;;5014969;28;20429;-70
2023/01/02 09:32:06;;;;;;;26.23;16.80;;;21.80;65.30;;;;;;5027835;28;20041;-71
2023/01/02 09:34:32;;;;;;;24.65;15.80;;;21.80;65.90;;;;;;5027902;28;20601;-70
2023/01/02 09:36:58;;;;;;;22.73;16.05;;;21.80;65.70;;;;;;5028157;28;20049;-71
2023/01/02 09:39:24;;;;;;;23.48;15.75;;;21.80;65.60;;;;;;5028075;28;20053;-71
2023/01/02 09:41:54;;;;;;;26.23;15.85;;;21.70;65.60;;;;;;5028064;28;20084;-73
2023/01/02 09:44:32;;;;;;;22.90;16.70;;;22.00;65.30;;;;;;5027672;28;20029;-71
2023/01/02 09:47:04;;;;;;;28.35;16.30;;;21.90;65.20;;;;;;5027961;28;20111;-74
2023/01/02 09:49:38;;;;;;;24.27;15.50;;;22.00;64.90;;;;;;5027849;28;20116;-71
2023/01/02 09:52:07;;;;;;;24.85;17.30;;;21.90;64.70;;;;;;5046872;28;20056;-70
2023/01/02 09:54:33;;;;;;;27.38;16.15;;;21.90;64.60;;;;;;5047579;28;20124;-72
2023/01/02 09:57:03;;;;;;;26.35;17.23;;;21.90;65.10;;;;;;5051898;28;20834;-73
2023/01/02 09:59:41;;;;;;;24.60;16.60;;;21.90;65.40;;;;;;5051072;28;20048;-70
2023/01/02 10:02:25;;;;;;;21.52;17.27;;;21.90;66.00;;;;;;5052781;28;20115;-71
2023/01/02 10:05:06;;;;;;;28.42;19.08;;;21.90;53.70;;;;;;5072968;28;20145;-69
2023/01/02 10:07:32;;;;;;;25.70;17.45;;;22.10;53.40;;;;;;5037969;28;20408;-70
2023/01/02 10:10:18;;;;;;;24.27;16.67;;;22.20;62.20;;;;;;5078762;28;20148;-70
2023/01/02 10:13:02;;;;;;;29.80;17.98;;;22.30;67.10;;;;;;5092578;28;20085;-70
2023/01/02 10:15:30;;;;;;;30.35;17.25;;;22.30;68.90;;;;;;5074088;28;20048;-71
2023/01/02 10:18:14;;;;;;;31.30;17.80;;;22.60;70.60;;;;;;5072551;28;20480;-71
2023/01/02 10:20:45;;;;;;;29.02;17.73;;;22.60;73.10;;;;;;5073898;28;20040;-72
2023/01/02 10:23:16;;;;;;;25.98;18.75;;;22.80;76.50;;;;;;5072520;28;20105;-70
2023/01/02 10:25:50;;;;;;;26.15;18.02;;;23.10;82.50;;;;;;5072704;28;20569;-71
2023/01/02 10:28:49;;;;;;;26.35;17.25;;;23.30;83.80;;;;;;5073731;28;20119;-71
2023/01/02 10:31:47;;;;;;;25.70;17.98;;;23.30;74.50;;;;;;5073741;28;20027;-70
2023/01/02 10:34:19;;;;;;;25.55;17.83;;;23.20;72.10;;;;;;5073551;28;20106;-71
2023/01/02 10:36:46;;;;;;;26.13;17.97;;;23.00;71.10;;;;;;5073332;28;20024;-73
2023/01/02 10:39:18;;;;;;;28.63;18.23;;;23.00;70.70;;;;;;5073475;28;20056;-70
2023/01/02 10:41:50;;;;;;;28.35;19.60;;;22.90;70.70;;;;;;5073770;28;20040;-70
2023/01/02 10:44:19;;;;;;;29.83;18.77;;;22.90;70.40;;;;;;5072248;28;20548;-70
2023/01/02 10:46:45;;;;;;;35.78;20.88;;;22.80;71.00;;;;;;5073208;28;20033;-70
2023/01/02 10:49:12;;;;;;;27.92;18.15;;;22.70;70.90;;;;;;5072979;28;20600;-71
2023/01/02 10:51:44;;;;;;;29.27;18.45;;;22.80;71.00;;;;;;5053762;28;20033;-71
2023/01/02 10:54:11;;;;;;;30.65;18.88;;;22.50;70.80;;;;;;5072562;28;20086;-70
2023/01/02 10:56:39;;;;;;;26.60;16.90;;;22.50;70.40;;;;;;5072895;28;20044;-70
2023/01/02 10:59:24;;;;;;;29.00;18.50;;;22.50;70.40;;;;;;5072753;28;20036;-71
2023/01/02 11:01:58;;;;;;;27.58;18.40;;;22.60;72.60;;;;;;5072751;28;20036;-70
2023/01/02 11:04:29;;;;;;;22.08;14.00;;;22.80;68.40;;;;;;5072293;28;20021;-69
2023/01/02 11:07:00;;;;;;;24.60;17.10;;;23.20;75.70;;;;;;5071343;28;20645;-72
2023/01/02 11:09:32;;;;;;;24.90;17.75;;;23.70;58.20;;;;;;5093260;28;20044;-71
2023/01/02 11:12:10;;;;;;;21.75;17.10;;;23.50;55.80;;;;;;5093532;28;20060;-72
2023/01/02 11:14:37;;;;;;;24.25;16.60;;;23.40;52.50;;;;;;5093066;28;20036;-83
2023/01/02 11:17:13;;;;;;;23.95;16.92;;;23.30;52.50;;;;;;5092951;28;20138;-70
2023/01/02 11:19:44;;;;;;;26.15;15.82;;;23.20;52.00;;;;;;5074999;28;20477;-70
2023/01/02 11:22:12;;;;;;;23.17;17.65;;;23.30;67.70;;;;;;5092841;28;20032;-70
2023/01/02 11:24:51;;;;;;;22.52;14.70;;;23.30;58.70;;;;;;5092946;28;20071;-71
2023/01/02 11:27:17;;;;;;;33.33;14.85;;;23.50;65.80;;;;;;5074990;28;20063;-70
2023/01/02 11:29:46;;;;;;;20.65;13.10;;;24.20;64.20;;;;;;5093087;28;20024;-70
2023/01/02 11:32:26;;;;;;;26.23;17.30;;;24.50;65.00;;;;;;5092987;28;20108;-73
2023/01/02 11:34:58;;;;;;;19.42;13.95;;;25.10;64.80;;;;;;5092755;28;20035;-70
2023/01/02 11:37:24;;;;;;;25.48;17.80;;;25.40;64.80;;;;;;5092759;28;20047;-72
2023/01/02 11:40:01;;;;;;;23.60;17.48;;;25.50;49.20;;;;;;5092783;28;20032;-71
2023/01/02 11:45:19;;;;;;;28.02;17.77;;;24.90;59.30;;;;;;5081662;28;20029;-71
2023/01/02 11:47:55;;;;;;;23.48;16.77;;;24.80;60.90;;;;;;5072422;28;20571;-72
2023/01/02 11:50:26;;;;;;;23.95;16.50;;;24.60;60.90;;;;;;5072345;28;20037;-73
2023/01/02 11:53:12;;;;;;;26.95;17.58;;;24.60;62.00;;;;;;5072971;28;20048;-69
2023/01/02 11:55:46;;;;;;;22.92;16.05;;;24.60;61.70;;;;;;5064184;28;20056;-70
2023/01/02 11:58:38;;;;;;;25.83;15.80;;;24.40;61.80;;;;;;5056225;28;20032;-72
2023/01/02 12:01:31;;;;;;;23.63;17.00;;;24.30;62.20;;;;;;5075058;28;20040;-71
2023/01/02 12:03:58;;;;;;;24.27;15.23;;;24.20;61.90;;;;;;4970487;28;20503;-69
2023/01/02 12:06:33;;;;;;;25.25;15.85;;;24.10;61.70;;;;;;4970659;28;20767;-70
2023/01/02 12:09:07;;;;;;;26.88;14.60;;;24.10;62.20;;;;;;4979453;28;20065;-70
2023/01/02 12:11:54;;;;;;;22.60;15.90;;;24.10;62.80;;;;;;5004338;28;20057;-69
2023/01/02 12:14:23;;;;;;;23.88;15.07;;;24.00;62.50;;;;;;5009400;28;20061;-71
2023/01/02 12:17:01;;;;;;;19.67;13.73;;;23.90;62.50;;;;;;4991945;28;20091;-70
2023/01/02 12:20:09;;;;;;;19.45;13.18;;;24.00;62.70;;;;;;5008106;28;20050;-70
2023/01/02 12:22:41;;;;;;;19.77;12.63;;;23.90;63.20;;;;;;5008230;28;20042;-71
2023/01/02 12:25:33;;;;;;;23.35;13.27;;;23.90;63.40;;;;;;4992073;28;20085;-70
2023/01/02 12:28:36;;;;;;;22.27;11.55;;;23.80;63.50;;;;;;5008047;28;20049;-71
2023/01/02 12:31:19;;;;;;;21.03;13.37;;;23.80;63.60;;;;;;5008440;28;20034;-71
2023/01/02 12:34:07;;;;;;;18.90;12.90;;;23.70;64.00;;;;;;5009238;28;20367;-72
2023/01/02 12:37:02;;;;;;;24.58;14.70;;;23.50;64.30;;;;;;4992385;28;20045;-72
2023/01/02 12:40:09;;;;;;;21.50;14.77;;;23.60;64.60;;;;;;5008058;28;20041;-70
2023/01/02 12:42:41;;;;;;;23.10;14.27;;;23.50;64.80;;;;;;5089041;28;20036;-69
2023/01/02 12:45:20;;;;;;;26.75;16.45;;;23.50;64.60;;;;;;5090868;28;20028;-70
2023/01/02 12:47:46;;;;;;;22.92;13.50;;;23.40;64.30;;;;;;5090767;28;20129;-70
2023/01/02 12:50:47;;;;;;;18.70;12.20;;;23.50;64.50;;;;;;5090952;28;20536;-70
2023/01/02 12:53:50;;;;;;;22.02;14.05;;;23.40;64.60;;;;;;5008251;28;20038;-72